createdAt,value
2018-03-19T00:00:54.477Z,0.00
2018-03-19T00:01:54.447Z,0.00
2018-03-19T00:02:54.436Z,0.00
2018-03-19T00:03:54.396Z,0.00
2018-03-19T00:04:54.376Z,0.00
2018-03-19T00:05:54.331Z,0.00
2018-03-19T00:06:54.304Z,0.00
2018-03-19T00:07:54.285Z,0.00
2018-03-19T00:08:54.261Z,0.00
2018-03-19T00:09:54.228Z,0.00
2018-03-19T00:10:54.220Z,0.00
2018-03-19T00:11:54.182Z,0.00
2018-03-19T00:12:54.166Z,0.00
2018-03-19T00:13:54.112Z,0.00
2018-03-19T00:14:54.092Z,0.00
2018-03-19T00:15:54.056Z,0.00
2018-03-19T00:16:54.028Z,0.00
2018-03-19T00:17:54.008Z,0.00
2018-03-19T00:18:54.000Z,0.00
2018-03-19T00:19:53.946Z,0.00
2018-03-19T00:20:53.922Z,0.00
2018-03-19T00:21:53.899Z,0.00
2018-03-19T00:22:53.879Z,0.00
2018-03-19T00:23:53.844Z,0.00
2018-03-19T00:24:53.817Z,0.00
2018-03-19T00:25:53.780Z,0.00
2018-03-19T00:26:53.766Z,0.00
2018-03-19T00:27:53.764Z,0.00
2018-03-19T00:28:53.737Z,0.00
2018-03-19T00:29:53.702Z,0.00
2018-03-19T00:30:53.655Z,0.00
2018-03-19T00:31:53.641Z,0.00
2018-03-19T00:32:53.599Z,0.00
2018-03-19T00:33:53.580Z,0.00
2018-03-19T00:34:53.567Z,0.00
2018-03-19T00:35:53.561Z,0.00
2018-03-19T00:36:53.486Z,0.00
2018-03-19T00:37:53.460Z,0.00
2018-03-19T00:38:53.521Z,0.00
2018-03-19T00:39:53.437Z,0.00
2018-03-19T00:40:53.449Z,0.00
2018-03-19T00:41:53.351Z,0.00
2018-03-19T00:42:53.344Z,0.00
2018-03-19T00:43:53.303Z,0.00
2018-03-19T00:44:53.276Z,0.00
2018-03-19T00:45:53.240Z,0.00
2018-03-19T00:46:53.222Z,0.00
2018-03-19T00:47:53.185Z,0.00
2018-03-19T00:48:53.181Z,0.00
2018-03-19T00:49:53.152Z,0.00
2018-03-19T00:50:53.131Z,0.00
2018-03-19T00:51:53.107Z,0.00
2018-03-19T00:52:53.044Z,0.00
2018-03-19T00:53:53.017Z,0.00
2018-03-19T00:54:53.033Z,0.00
2018-03-19T00:55:52.961Z,0.00
2018-03-19T00:56:52.945Z,0.00
2018-03-19T00:57:52.947Z,0.00
2018-03-19T00:58:52.886Z,0.00
2018-03-19T00:59:52.872Z,0.00
2018-03-19T01:00:52.831Z,0.00
2018-03-19T01:01:52.822Z,0.00
2018-03-19T01:02:52.787Z,0.00
2018-03-19T01:03:52.764Z,0.00
2018-03-19T01:04:52.740Z,0.00
2018-03-19T01:05:52.695Z,0.00
2018-03-19T01:06:52.672Z,0.00
2018-03-19T01:07:52.633Z,0.00
2018-03-19T01:08:52.612Z,0.00
2018-03-19T01:09:52.577Z,0.00
2018-03-19T01:10:52.552Z,0.00
2018-03-19T01:11:52.529Z,0.00
2018-03-19T01:12:52.497Z,0.00
2018-03-19T01:13:52.496Z,0.00
2018-03-19T01:14:52.455Z,0.00
2018-03-19T01:15:52.419Z,0.00
2018-03-19T01:16:52.391Z,0.00
2018-03-19T01:17:52.367Z,0.00
2018-03-19T01:18:52.341Z,0.00
2018-03-19T01:19:52.323Z,0.00
2018-03-19T01:20:52.283Z,0.00
2018-03-19T01:21:52.252Z,0.00
2018-03-19T01:22:52.233Z,0.00
2018-03-19T01:23:52.224Z,0.00
2018-03-19T01:24:52.168Z,0.00
2018-03-19T01:25:52.167Z,0.00
2018-03-19T01:26:52.122Z,0.00
2018-03-19T01:27:52.091Z,0.00
2018-03-19T01:28:52.079Z,0.00
2018-03-19T01:29:52.027Z,0.00
2018-03-19T01:30:52.032Z,0.00
2018-03-19T01:31:51.975Z,0.00
2018-03-19T01:32:51.971Z,0.00
2018-03-19T01:33:51.918Z,0.00
2018-03-19T01:34:51.898Z,0.00
2018-03-19T01:35:51.866Z,0.00
2018-03-19T01:36:51.877Z,0.00
2018-03-19T01:37:51.905Z,0.00
2018-03-19T01:38:51.790Z,0.00
2018-03-19T01:39:51.764Z,0.00
2018-03-19T01:40:51.727Z,0.00
2018-03-19T01:41:51.707Z,0.00
2018-03-19T01:42:51.724Z,0.00
2018-03-19T01:43:51.656Z,0.00
2018-03-19T01:44:51.619Z,0.00
2018-03-19T01:45:51.617Z,0.00
2018-03-19T01:46:51.695Z,0.00
2018-03-19T01:47:51.539Z,0.00
2018-03-19T01:48:51.520Z,0.00
2018-03-19T01:49:51.492Z,0.00
2018-03-19T01:50:51.491Z,0.00
2018-03-19T01:51:51.438Z,0.00
2018-03-19T01:52:51.398Z,0.00
2018-03-19T01:53:51.390Z,0.00
2018-03-19T01:54:51.386Z,0.00
2018-03-19T01:55:51.319Z,0.00
2018-03-19T01:56:51.290Z,0.00
2018-03-19T01:57:51.309Z,0.00
2018-03-19T01:58:51.232Z,0.00
2018-03-19T01:59:51.210Z,0.00
2018-03-19T02:00:51.187Z,0.00
2018-03-19T02:01:51.174Z,0.00
2018-03-19T02:02:51.135Z,0.00
2018-03-19T02:03:51.151Z,0.00
2018-03-19T02:04:51.075Z,0.00
2018-03-19T02:05:51.045Z,0.00
2018-03-19T02:06:51.014Z,0.00
2018-03-19T02:07:51.010Z,0.00
2018-03-19T02:08:51.019Z,0.00
2018-03-19T02:09:50.942Z,0.00
2018-03-19T02:10:50.918Z,0.00
2018-03-19T02:11:50.884Z,0.00
2018-03-19T02:12:50.845Z,0.00
2018-03-19T02:13:50.836Z,0.00
2018-03-19T02:14:50.796Z,0.00
2018-03-19T02:15:50.804Z,0.00
2018-03-19T02:16:50.776Z,0.00
2018-03-19T02:17:50.710Z,0.00
2018-03-19T02:18:50.687Z,0.00
2018-03-19T02:19:51.230Z,0.00
2018-03-19T02:20:50.650Z,0.00
2018-03-19T02:21:50.596Z,0.00
2018-03-19T02:22:50.574Z,0.00
2018-03-19T02:23:50.560Z,0.00
2018-03-19T02:24:50.543Z,0.00
2018-03-19T02:25:50.502Z,0.00
2018-03-19T02:26:50.467Z,0.00
2018-03-19T02:27:50.438Z,0.00
2018-03-19T02:28:50.449Z,0.00
2018-03-19T02:29:50.382Z,0.00
2018-03-19T02:30:50.371Z,0.00
2018-03-19T02:31:50.331Z,0.00
2018-03-19T02:32:50.311Z,0.00
2018-03-19T02:33:50.269Z,0.00
2018-03-19T02:34:50.250Z,0.00
2018-03-19T02:35:50.215Z,0.00
2018-03-19T02:36:50.209Z,0.00
2018-03-19T02:37:50.189Z,0.00
2018-03-19T02:38:50.133Z,0.00
2018-03-19T02:39:50.188Z,0.00
2018-03-19T02:40:50.090Z,0.00
2018-03-19T02:41:50.079Z,0.00
2018-03-19T02:42:50.057Z,0.00
2018-03-19T02:43:50.054Z,0.00
2018-03-19T02:44:49.986Z,0.00
2018-03-19T02:45:49.947Z,0.00
2018-03-19T02:46:49.920Z,0.00
2018-03-19T02:47:49.882Z,0.00
2018-03-19T02:48:49.855Z,0.00
2018-03-19T02:49:49.853Z,0.00
2018-03-19T02:50:49.866Z,0.00
2018-03-19T02:51:49.783Z,0.00
2018-03-19T02:52:49.759Z,0.00
2018-03-19T02:53:49.754Z,0.00
2018-03-19T02:54:49.705Z,0.00
2018-03-19T02:55:49.675Z,0.00
2018-03-19T02:56:49.635Z,0.00
2018-03-19T02:57:49.598Z,0.00
2018-03-19T02:58:49.582Z,0.00
2018-03-19T02:59:49.579Z,0.00
2018-03-19T03:00:49.538Z,0.00
2018-03-19T03:01:49.502Z,0.00
2018-03-19T03:02:49.469Z,0.00
2018-03-19T03:03:49.443Z,0.00
2018-03-19T03:04:49.416Z,0.00
2018-03-19T03:05:49.430Z,0.00
2018-03-19T03:06:49.346Z,0.00
2018-03-19T03:07:49.368Z,0.00
2018-03-19T03:08:49.320Z,0.00
2018-03-19T03:09:49.283Z,0.00
2018-03-19T03:10:49.250Z,0.00
2018-03-19T03:11:49.227Z,0.00
2018-03-19T03:12:49.198Z,0.00
2018-03-19T03:13:49.183Z,0.00
2018-03-19T03:14:49.149Z,0.00
2018-03-19T03:15:49.122Z,0.00
2018-03-19T03:16:49.092Z,0.00
2018-03-19T03:17:49.078Z,0.00
2018-03-19T03:18:49.028Z,0.00
2018-03-19T03:19:49.001Z,0.00
2018-03-19T03:20:49.008Z,0.00
2018-03-19T03:21:48.946Z,0.00
2018-03-19T03:22:48.931Z,0.00
2018-03-19T03:23:48.896Z,0.00
2018-03-19T03:24:48.880Z,0.00
2018-03-19T03:25:48.856Z,0.00
2018-03-19T03:26:48.815Z,0.00
2018-03-19T03:27:48.781Z,0.00
2018-03-19T03:28:48.760Z,0.00
2018-03-19T03:29:48.728Z,0.00
2018-03-19T03:30:48.701Z,0.00
2018-03-19T03:31:48.674Z,0.00
2018-03-19T03:32:48.647Z,0.00
2018-03-19T03:33:48.610Z,0.00
2018-03-19T03:34:48.611Z,0.00
2018-03-19T03:35:48.562Z,0.00
2018-03-19T03:36:48.548Z,0.00
2018-03-19T03:37:48.526Z,0.00
2018-03-19T03:38:48.483Z,0.00
2018-03-19T03:39:48.444Z,0.00
2018-03-19T03:40:48.420Z,0.00
2018-03-19T03:41:48.392Z,0.00
2018-03-19T03:42:48.383Z,0.00
2018-03-19T03:43:48.364Z,0.00
2018-03-19T03:44:48.322Z,0.00
2018-03-19T03:45:48.279Z,0.00
2018-03-19T03:46:48.266Z,0.00
2018-03-19T03:47:48.220Z,0.00
2018-03-19T03:48:48.203Z,0.00
2018-03-19T03:49:48.180Z,0.00
2018-03-19T03:50:48.151Z,0.00
2018-03-19T03:51:48.127Z,0.00
2018-03-19T03:52:48.121Z,0.00
2018-03-19T03:53:48.087Z,0.00
2018-03-19T03:54:48.020Z,0.00
2018-03-19T03:55:48.053Z,0.00
2018-03-19T03:56:47.988Z,0.00
2018-03-19T03:57:47.978Z,0.00
2018-03-19T03:58:47.996Z,0.00
2018-03-19T03:59:47.892Z,0.00
2018-03-19T04:00:47.877Z,0.00
2018-03-19T04:01:47.839Z,0.00
2018-03-19T04:02:47.815Z,0.00
2018-03-19T04:03:47.781Z,0.00
2018-03-19T04:04:47.757Z,0.00
2018-03-19T04:05:47.731Z,0.00
2018-03-19T04:06:47.712Z,0.00
2018-03-19T04:07:47.679Z,0.00
2018-03-19T04:08:47.697Z,0.00
2018-03-19T04:09:47.609Z,0.00
2018-03-19T04:10:47.598Z,0.00
2018-03-19T04:11:47.567Z,0.00
2018-03-19T04:12:47.536Z,0.00
2018-03-19T04:13:47.506Z,0.00
2018-03-19T04:14:47.479Z,0.00
2018-03-19T04:15:47.465Z,0.00
2018-03-19T04:16:47.436Z,0.00
2018-03-19T04:17:47.483Z,0.00
2018-03-19T04:18:47.362Z,0.00
2018-03-19T04:19:47.336Z,0.00
2018-03-19T04:20:47.304Z,0.00
2018-03-19T04:21:47.320Z,0.00
2018-03-19T04:22:47.300Z,0.00
2018-03-19T04:23:47.228Z,0.00
2018-03-19T04:24:47.204Z,0.00
2018-03-19T04:25:47.221Z,0.00
2018-03-19T04:26:47.157Z,0.00
2018-03-19T04:27:47.230Z,0.00
2018-03-19T04:28:47.089Z,0.00
2018-03-19T04:29:47.100Z,0.00
2018-03-19T04:30:47.046Z,0.00
2018-03-19T04:31:47.004Z,0.00
2018-03-19T04:32:46.974Z,0.00
2018-03-19T04:33:46.947Z,0.00
2018-03-19T04:34:46.967Z,0.00
2018-03-19T04:35:46.890Z,0.00
2018-03-19T04:36:46.873Z,0.00
2018-03-19T04:37:46.834Z,0.00
2018-03-19T04:38:46.821Z,0.00
2018-03-19T04:39:46.814Z,0.00
2018-03-19T04:40:46.766Z,0.00
2018-03-19T04:41:46.752Z,0.00
2018-03-19T04:42:46.731Z,0.00
2018-03-19T04:43:46.719Z,0.00
2018-03-19T04:44:46.643Z,0.00
2018-03-19T04:45:46.626Z,0.00
2018-03-19T04:46:46.581Z,0.00
2018-03-19T04:47:46.551Z,0.00
2018-03-19T04:48:46.556Z,0.00
2018-03-19T04:49:46.524Z,0.00
2018-03-19T04:50:46.472Z,0.00
2018-03-19T04:51:46.451Z,0.00
2018-03-19T04:52:46.440Z,0.00
2018-03-19T04:53:46.386Z,0.00
2018-03-19T04:54:46.404Z,0.00
2018-03-19T04:55:46.343Z,0.00
2018-03-19T04:56:46.304Z,4.00
2018-03-19T04:57:46.335Z,0.00
2018-03-19T04:58:47.293Z,4.00
2018-03-19T04:59:47.088Z,4.00
2018-03-19T05:00:46.201Z,4.00
2018-03-19T05:01:46.491Z,4.00
2018-03-19T05:02:46.137Z,4.00
2018-03-19T05:03:46.148Z,4.00
2018-03-19T05:04:46.084Z,4.00
2018-03-19T05:05:46.063Z,8.00
2018-03-19T05:06:46.045Z,8.00
2018-03-19T05:07:45.986Z,8.00
2018-03-19T05:08:46.024Z,16.00
2018-03-19T05:09:45.954Z,16.00
2018-03-19T05:10:45.995Z,20.00
2018-03-19T05:11:45.917Z,24.00
2018-03-19T05:12:45.903Z,28.00
2018-03-19T05:13:45.843Z,32.00
2018-03-19T05:14:45.797Z,32.00
2018-03-19T05:15:45.770Z,40.00
2018-03-19T05:16:45.763Z,52.00
2018-03-19T05:17:45.766Z,60.00
2018-03-19T05:18:45.694Z,64.00
2018-03-19T05:19:45.665Z,76.00
2018-03-19T05:20:45.663Z,88.00
2018-03-19T05:21:45.625Z,100.00
2018-03-19T05:22:45.568Z,112.00
2018-03-19T05:23:45.565Z,120.00
2018-03-19T05:24:45.583Z,136.00
2018-03-19T05:25:45.509Z,148.00
2018-03-19T05:26:45.497Z,160.00
2018-03-19T05:27:45.437Z,176.00
2018-03-19T05:28:45.402Z,188.00
2018-03-19T05:29:45.380Z,208.00
2018-03-19T05:30:45.351Z,228.00
2018-03-19T05:31:45.325Z,252.00
2018-03-19T05:32:45.311Z,272.00
2018-03-19T05:33:45.266Z,296.00
2018-03-19T05:34:45.263Z,324.00
2018-03-19T05:35:45.215Z,348.00
2018-03-19T05:36:45.206Z,372.00
2018-03-19T05:37:45.138Z,400.00
2018-03-19T05:38:45.148Z,432.00
2018-03-19T05:39:45.116Z,464.00
2018-03-19T05:40:45.068Z,504.00
2018-03-19T05:41:45.044Z,544.00
2018-03-19T05:42:45.014Z,588.00
2018-03-19T05:43:44.989Z,632.00
2018-03-19T05:44:44.976Z,676.00
2018-03-19T05:45:44.950Z,724.00
2018-03-19T05:46:44.903Z,776.00
2018-03-19T05:47:44.923Z,828.00
2018-03-19T05:48:44.841Z,880.00
2018-03-19T05:49:44.894Z,928.00
2018-03-19T05:50:44.803Z,984.00
2018-03-19T05:51:44.778Z,1040.00
2018-03-19T05:52:44.747Z,1096.00
2018-03-19T05:53:44.742Z,1160.00
2018-03-19T05:54:44.707Z,1228.00
2018-03-19T05:55:44.649Z,1292.00
2018-03-19T05:56:44.699Z,1352.00
2018-03-19T05:57:44.600Z,1416.00
2018-03-19T05:58:44.561Z,1480.00
2018-03-19T05:59:44.532Z,1540.00
2018-03-19T06:00:44.499Z,1600.00
2018-03-19T06:01:44.507Z,1660.00
2018-03-19T06:02:44.444Z,1724.00
2018-03-19T06:03:44.423Z,1780.00
2018-03-19T06:04:44.410Z,1844.00
2018-03-19T06:05:44.394Z,1904.00
2018-03-19T06:06:44.346Z,1976.00
2018-03-19T06:07:44.318Z,2052.00
2018-03-19T06:08:44.290Z,2124.00
2018-03-19T06:09:44.256Z,2208.00
2018-03-19T06:10:44.326Z,2284.00
2018-03-19T06:11:44.696Z,2364.00
2018-03-19T06:12:44.307Z,2448.00
2018-03-19T06:13:44.154Z,2528.00
2018-03-19T06:14:44.135Z,2624.00
2018-03-19T06:15:44.120Z,2712.00
2018-03-19T06:16:44.089Z,2812.00
2018-03-19T06:17:44.062Z,2916.00
2018-03-19T06:18:44.019Z,3020.00
2018-03-19T06:19:43.990Z,3124.00
2018-03-19T06:20:43.947Z,3220.00
2018-03-19T06:21:43.928Z,3308.00
2018-03-19T06:22:43.904Z,3396.00
2018-03-19T06:23:43.865Z,3496.00
2018-03-19T06:24:43.839Z,3580.00
2018-03-19T06:25:43.861Z,3672.00
2018-03-19T06:26:43.826Z,3760.00
2018-03-19T06:27:43.800Z,3852.00
2018-03-19T06:28:43.728Z,3944.00
2018-03-19T06:29:43.695Z,4036.00
2018-03-19T06:30:43.699Z,4120.00
2018-03-19T06:31:43.647Z,4176.00
2018-03-19T06:32:43.640Z,4232.00
2018-03-19T06:33:43.608Z,4292.00
2018-03-19T06:34:43.571Z,4344.00
2018-03-19T06:35:43.536Z,4396.00
2018-03-19T06:36:43.560Z,4444.00
2018-03-19T06:37:43.498Z,4492.00
2018-03-19T06:38:43.487Z,4556.00
2018-03-19T06:39:43.480Z,4644.00
2018-03-19T06:40:43.428Z,4712.00
2018-03-19T06:41:43.391Z,4764.00
2018-03-19T06:42:43.344Z,4808.00
2018-03-19T06:43:43.329Z,4840.00
2018-03-19T06:44:43.293Z,4892.00
2018-03-19T06:45:43.259Z,4964.00
2018-03-19T06:46:43.255Z,5072.00
2018-03-19T06:47:43.206Z,5160.00
2018-03-19T06:48:43.202Z,5176.00
2018-03-19T06:49:43.192Z,5172.00
2018-03-19T06:50:43.126Z,5224.00
2018-03-19T06:51:43.110Z,5300.00
2018-03-19T06:52:43.092Z,5380.00
2018-03-19T06:53:43.054Z,5480.00
2018-03-19T06:54:43.020Z,5576.00
2018-03-19T06:55:43.000Z,5700.00
2018-03-19T06:56:42.968Z,5848.00
2018-03-19T06:57:42.976Z,6024.00
2018-03-19T06:58:42.943Z,6232.00
2018-03-19T06:59:42.891Z,6428.00
2018-03-19T07:00:42.872Z,6552.00
2018-03-19T07:01:42.851Z,6552.00
2018-03-19T07:02:43.758Z,6540.00
2018-03-19T07:03:42.783Z,6616.00
2018-03-19T07:04:42.768Z,6716.00
2018-03-19T07:05:42.745Z,6868.00
2018-03-19T07:06:42.689Z,7056.00
2018-03-19T07:07:42.692Z,7216.00
2018-03-19T07:08:42.657Z,7284.00
2018-03-19T07:09:42.644Z,7292.00
2018-03-19T07:10:42.622Z,7208.00
2018-03-19T07:11:42.578Z,7176.00
2018-03-19T07:12:42.555Z,7220.00
2018-03-19T07:13:42.513Z,7356.00
2018-03-19T07:14:42.540Z,7536.00
2018-03-19T07:15:42.501Z,7576.00
2018-03-19T07:16:42.477Z,7576.00
2018-03-19T07:17:42.403Z,7688.00
2018-03-19T07:18:42.416Z,7936.00
2018-03-19T07:19:42.366Z,8276.00
2018-03-19T07:20:42.359Z,8264.00
2018-03-19T07:21:42.307Z,8240.00
2018-03-19T07:22:42.269Z,8272.00
2018-03-19T07:23:42.253Z,8476.00
2018-03-19T07:24:42.246Z,8476.00
2018-03-19T07:25:42.194Z,8452.00
2018-03-19T07:26:42.164Z,8512.00
2018-03-19T07:27:42.148Z,8632.00
2018-03-19T07:28:42.164Z,8836.00
2018-03-19T07:29:42.110Z,8708.00
2018-03-19T07:30:42.093Z,8660.00
2018-03-19T07:31:42.782Z,8776.00
2018-03-19T07:32:42.020Z,8788.00
2018-03-19T07:33:41.997Z,8612.00
2018-03-19T07:34:41.978Z,8708.00
2018-03-19T07:35:41.994Z,8840.00
2018-03-19T07:36:41.911Z,9092.00
2018-03-19T07:37:41.887Z,8988.00
2018-03-19T07:38:41.891Z,8920.00
2018-03-19T07:39:41.850Z,9032.00
2018-03-19T07:40:41.805Z,9356.00
2018-03-19T07:41:41.791Z,9232.00
2018-03-19T07:42:42.256Z,9048.00
2018-03-19T07:43:41.742Z,9196.00
2018-03-19T07:44:41.704Z,9088.00
2018-03-19T07:45:41.720Z,9112.00
2018-03-19T07:46:41.666Z,9292.00
2018-03-19T07:47:41.658Z,9788.00
2018-03-19T07:48:41.601Z,10736.00
2018-03-19T07:49:41.594Z,10880.00
2018-03-19T07:50:41.552Z,11108.00
2018-03-19T07:51:41.547Z,11372.00
2018-03-19T07:52:41.506Z,12108.00
2018-03-19T07:53:41.516Z,11836.00
2018-03-19T07:54:41.457Z,11616.00
2018-03-19T07:55:41.466Z,12024.00
2018-03-19T07:56:41.424Z,11868.00
2018-03-19T07:57:41.398Z,11812.00
2018-03-19T07:58:41.343Z,12108.00
2018-03-19T07:59:41.313Z,12704.00
2018-03-19T08:00:41.307Z,13196.00
2018-03-19T08:01:41.276Z,15712.00
2018-03-19T08:02:41.235Z,17152.00
2018-03-19T08:03:41.215Z,16896.00
2018-03-19T08:04:41.180Z,17376.00
2018-03-19T08:05:41.184Z,18176.00
2018-03-19T08:06:41.162Z,18208.00
2018-03-19T08:07:41.211Z,19008.00
2018-03-19T08:08:41.115Z,19136.00
2018-03-19T08:09:41.063Z,17696.00
2018-03-19T08:10:41.030Z,17344.00
2018-03-19T08:11:41.021Z,17792.00
2018-03-19T08:12:40.993Z,19328.00
2018-03-19T08:13:40.997Z,21184.00
2018-03-19T08:14:40.959Z,21856.00
2018-03-19T08:15:40.918Z,21696.00
2018-03-19T08:16:40.893Z,20832.00
2018-03-19T08:17:40.866Z,20800.00
2018-03-19T08:18:40.890Z,21920.00
2018-03-19T08:19:40.823Z,23136.00
2018-03-19T08:20:40.786Z,22816.00
2018-03-19T08:21:40.768Z,23840.00
2018-03-19T08:22:40.767Z,24640.00
2018-03-19T08:23:40.727Z,25280.00
2018-03-19T08:24:40.730Z,25984.00
2018-03-19T08:25:40.671Z,25472.00
2018-03-19T08:26:40.660Z,24064.00
2018-03-19T08:27:40.698Z,23808.00
2018-03-19T08:28:40.610Z,24640.00
2018-03-19T08:29:40.592Z,25760.00
2018-03-19T08:30:40.686Z,26944.00
2018-03-19T08:31:40.551Z,27872.00
2018-03-19T08:32:40.514Z,28928.00
2018-03-19T08:33:40.497Z,30400.00
2018-03-19T08:34:40.485Z,32032.00
2018-03-19T08:35:40.456Z,33472.00
2018-03-19T08:36:40.577Z,35584.00
2018-03-19T08:37:40.432Z,37024.00
2018-03-19T08:38:40.394Z,37856.00
2018-03-19T08:39:40.374Z,38336.00
2018-03-19T08:40:40.348Z,38816.00
2018-03-19T08:41:40.314Z,39840.00
2018-03-19T08:42:40.300Z,39968.00
2018-03-19T08:43:40.366Z,41760.00
2018-03-19T08:44:40.280Z,41888.00
2018-03-19T08:45:40.251Z,44576.00
2018-03-19T08:46:40.266Z,42560.00
2018-03-19T08:47:40.236Z,41920.00
2018-03-19T08:48:40.170Z,40576.00
2018-03-19T08:49:40.170Z,40864.00
2018-03-19T08:50:40.135Z,41024.00
2018-03-19T08:51:40.134Z,40832.00
2018-03-19T08:52:40.102Z,39840.00
2018-03-19T08:53:40.074Z,36160.00
2018-03-19T08:54:40.048Z,37888.00
2018-03-19T08:55:40.061Z,38272.00
2018-03-19T08:56:40.048Z,46016.00
2018-03-19T08:57:40.003Z,46368.00
2018-03-19T08:58:39.976Z,49600.00
2018-03-19T08:59:39.995Z,47008.00
2018-03-19T09:00:39.938Z,47328.00
2018-03-19T09:01:39.933Z,41184.00
2018-03-19T09:02:39.915Z,33120.00
2018-03-19T09:03:39.898Z,32960.00
2018-03-19T09:04:39.863Z,36384.00
2018-03-19T09:05:39.841Z,40384.00
2018-03-19T09:06:39.825Z,42816.00
2018-03-19T09:07:39.832Z,45440.00
2018-03-19T09:08:39.866Z,45760.00
2018-03-19T09:09:39.769Z,48992.00
2018-03-19T09:10:39.753Z,51520.00
2018-03-19T09:11:39.752Z,51520.00
2018-03-19T09:12:39.763Z,50560.00
2018-03-19T09:13:39.697Z,57920.00
2018-03-19T09:14:39.675Z,59968.00
2018-03-19T09:15:39.653Z,58368.00
2018-03-19T09:16:39.646Z,55040.00
2018-03-19T09:17:39.631Z,54208.00
2018-03-19T09:18:39.605Z,54944.00
2018-03-19T09:19:39.595Z,54880.00
2018-03-19T09:20:39.585Z,57856.00
2018-03-19T09:21:39.564Z,56928.00
2018-03-19T09:22:39.542Z,56192.00
2018-03-19T09:23:39.522Z,52128.00
2018-03-19T09:24:39.542Z,56448.00
2018-03-19T09:25:39.489Z,55808.00
2018-03-19T09:26:39.522Z,54336.00
2018-03-19T09:27:39.469Z,54944.00
2018-03-19T09:28:39.520Z,54112.00
2018-03-19T09:29:39.437Z,56160.00
2018-03-19T09:30:39.413Z,56448.00
2018-03-19T09:31:39.415Z,56320.00
2018-03-19T09:32:39.456Z,54816.00
2018-03-19T09:33:39.371Z,53184.00
2018-03-19T09:34:39.352Z,54560.00
2018-03-19T09:35:39.353Z,53728.00
2018-03-19T09:36:39.366Z,58880.00
2018-03-19T09:37:39.337Z,62176.00
2018-03-19T09:38:39.309Z,64768.00
2018-03-19T09:39:39.375Z,71936.00
2018-03-19T09:40:39.269Z,69760.00
2018-03-19T09:41:39.303Z,70336.00
2018-03-19T09:42:39.285Z,63264.00
2018-03-19T09:43:39.229Z,62080.00
2018-03-19T09:44:39.214Z,64032.00
2018-03-19T09:45:39.248Z,63520.00
2018-03-19T09:46:39.191Z,62464.00
2018-03-19T09:47:39.191Z,67904.00
2018-03-19T09:48:39.159Z,62528.00
2018-03-19T09:49:39.148Z,64064.00
2018-03-19T09:50:39.147Z,61888.00
2018-03-19T09:51:39.149Z,60736.00
2018-03-19T09:52:39.128Z,61344.00
2018-03-19T09:53:39.157Z,57440.00
2018-03-19T09:54:39.160Z,48800.00
2018-03-19T09:55:39.065Z,50560.00
2018-03-19T09:56:39.066Z,48672.00
2018-03-19T09:57:39.060Z,52832.00
2018-03-19T09:58:39.031Z,52256.00
2018-03-19T09:59:39.022Z,51360.00
2018-03-19T10:00:38.993Z,47488.00
2018-03-19T10:01:39.060Z,52608.00
2018-03-19T10:02:38.986Z,54752.00
2018-03-19T10:03:38.967Z,54336.00
2018-03-19T10:04:38.933Z,51968.00
2018-03-19T10:05:38.931Z,54400.00
2018-03-19T10:06:38.922Z,54016.00
2018-03-19T10:07:38.902Z,52352.00
2018-03-19T10:08:38.917Z,52832.00
2018-03-19T10:09:38.920Z,49920.00
2018-03-19T10:10:38.899Z,52192.00
2018-03-19T10:11:38.863Z,56096.00
2018-03-19T10:12:38.837Z,58624.00
2018-03-19T10:13:38.828Z,55936.00
2018-03-19T10:14:48.782Z,59328.00
2018-03-19T10:16:35.497Z,62752.00
2018-03-19T10:17:50.435Z,60736.00
2018-03-19T10:18:34.178Z,54752.00
2018-03-19T10:19:39.182Z,54784.00
2018-03-19T10:20:45.055Z,54944.00
2018-03-19T10:21:39.766Z,53344.00
2018-03-19T10:24:34.579Z,55296.00
2018-03-19T10:25:33.630Z,58240.00
2018-03-19T10:26:34.558Z,57696.00
2018-03-19T10:30:05.566Z,57792.00
2018-03-19T10:31:05.336Z,52736.00
2018-03-19T10:32:05.256Z,57952.00
2018-03-19T10:33:05.259Z,58496.00
2018-03-19T10:34:05.462Z,56352.00
2018-03-19T10:35:05.189Z,58752.00
2018-03-19T10:36:05.156Z,60800.00
2018-03-19T10:37:05.137Z,60672.00
2018-03-19T10:38:05.126Z,62304.00
2018-03-19T10:39:05.151Z,63392.00
2018-03-19T10:40:05.120Z,67168.00
2018-03-19T10:41:05.118Z,67968.00
2018-03-19T10:42:05.086Z,70912.00
2018-03-19T10:43:05.126Z,66112.00
2018-03-19T10:44:05.051Z,64704.00
2018-03-19T10:45:05.051Z,65632.00
2018-03-19T10:46:05.088Z,71936.00
2018-03-19T10:47:05.035Z,67680.00
2018-03-19T10:48:05.040Z,68864.00
2018-03-19T10:49:04.999Z,68768.00
2018-03-19T10:50:04.984Z,73216.00
2018-03-19T10:51:04.985Z,66784.00
2018-03-19T10:52:04.978Z,69856.00
2018-03-19T10:53:04.949Z,73120.00
2018-03-19T10:54:04.948Z,78208.00
2018-03-19T10:55:04.989Z,77952.00
2018-03-19T10:56:04.942Z,76256.00
2018-03-19T10:57:04.910Z,77120.00
2018-03-19T10:58:04.932Z,78912.00
2018-03-19T10:59:04.880Z,78208.00
2018-03-19T11:00:04.879Z,78912.00
2018-03-19T11:01:05.208Z,80256.00
2018-03-19T11:02:06.056Z,75904.00
2018-03-19T11:03:04.850Z,80448.00
2018-03-19T11:04:04.827Z,84736.00
2018-03-19T11:05:05.188Z,83648.00
2018-03-19T11:06:04.850Z,81152.00
2018-03-19T11:07:04.846Z,80160.00
2018-03-19T11:08:04.827Z,80800.00
2018-03-19T11:09:04.828Z,81120.00
2018-03-19T11:10:04.769Z,80288.00
2018-03-19T11:11:04.814Z,81376.00
2018-03-19T11:12:04.852Z,79328.00
2018-03-19T11:13:04.753Z,74912.00
2018-03-19T11:14:04.747Z,78528.00
2018-03-19T11:15:04.741Z,84576.00
2018-03-19T11:16:04.756Z,81408.00
2018-03-19T11:17:04.764Z,78048.00
2018-03-19T11:18:04.733Z,81216.00
2018-03-19T11:19:04.735Z,75104.00
2018-03-19T11:20:04.725Z,82656.00
2018-03-19T11:21:04.702Z,79840.00
2018-03-19T11:22:04.688Z,82432.00
2018-03-19T11:23:04.689Z,82912.00
2018-03-19T11:24:04.653Z,77888.00
2018-03-19T11:25:04.645Z,69536.00
2018-03-19T11:26:04.654Z,74464.00
2018-03-19T11:27:04.624Z,81216.00
2018-03-19T11:28:04.878Z,83040.00
2018-03-19T11:29:04.628Z,77344.00
2018-03-19T11:30:04.612Z,75552.00
2018-03-19T11:31:04.637Z,81120.00
2018-03-19T11:32:04.591Z,83520.00
2018-03-19T11:33:04.585Z,84032.00
2018-03-19T11:34:04.580Z,84352.00
2018-03-19T11:35:04.595Z,65088.00
2018-03-19T11:36:04.579Z,69248.00
2018-03-19T11:37:04.558Z,60576.00
2018-03-19T11:38:04.544Z,74752.00
2018-03-19T11:39:04.592Z,72928.00
2018-03-19T11:40:04.532Z,76992.00
2018-03-19T11:41:04.536Z,75072.00
2018-03-19T11:42:04.522Z,62496.00
2018-03-19T11:43:04.503Z,62560.00
2018-03-19T11:44:04.500Z,76896.00
2018-03-19T11:45:04.546Z,78496.00
2018-03-19T11:46:04.483Z,80672.00
2018-03-19T11:47:04.490Z,83392.00
2018-03-19T11:48:04.464Z,79488.00
2018-03-19T11:49:04.458Z,78976.00
2018-03-19T11:50:04.453Z,76256.00
2018-03-19T11:51:04.445Z,77920.00
2018-03-19T11:52:04.432Z,80416.00
2018-03-19T11:53:04.424Z,80320.00
2018-03-19T11:54:04.500Z,79360.00
2018-03-19T11:55:04.408Z,77440.00
2018-03-19T11:56:04.440Z,76960.00
2018-03-19T11:57:04.412Z,71296.00
2018-03-19T11:58:04.424Z,70176.00
2018-03-19T11:59:04.376Z,70016.00
2018-03-19T12:00:04.370Z,72768.00
2018-03-19T12:01:04.376Z,76256.00
2018-03-19T12:02:04.355Z,76928.00
2018-03-19T12:03:04.351Z,80416.00
2018-03-19T12:04:04.352Z,82752.00
2018-03-19T12:05:04.326Z,78592.00
2018-03-19T12:06:04.332Z,74688.00
2018-03-19T12:07:04.359Z,80768.00
2018-03-19T12:08:04.320Z,82880.00
2018-03-19T12:09:04.297Z,82528.00
2018-03-19T12:10:04.293Z,83840.00
2018-03-19T12:11:04.286Z,83968.00
2018-03-19T12:12:04.273Z,81984.00
2018-03-19T12:13:04.261Z,79296.00
2018-03-19T12:14:04.295Z,77536.00
2018-03-19T12:15:04.269Z,80576.00
2018-03-19T12:16:04.235Z,81184.00
2018-03-19T12:17:04.245Z,77920.00
2018-03-19T12:18:04.230Z,81504.00
2018-03-19T12:19:04.227Z,83904.00
2018-03-19T12:20:04.224Z,85440.00
2018-03-19T12:21:04.215Z,80704.00
2018-03-19T12:22:04.211Z,78816.00
2018-03-19T12:23:04.212Z,80032.00
2018-03-19T12:24:04.182Z,84768.00
2018-03-19T12:25:04.203Z,80448.00
2018-03-19T12:26:04.181Z,71616.00
2018-03-19T12:27:04.219Z,74240.00
2018-03-19T12:28:04.154Z,78208.00
2018-03-19T12:29:04.158Z,80960.00
2018-03-19T12:30:04.144Z,83808.00
2018-03-19T12:31:04.142Z,85280.00
2018-03-19T12:32:04.137Z,82208.00
2018-03-19T12:33:04.144Z,78496.00